• Join FlightAware (Why Join?)
  • Login
  • US Flag 
05:26PM EST


 

Airport Tracker/Info


-or-


 

Live Flight TrackerFlight Track Log ✈ N71AA ✈ 13-Aug-2013 ✈ PAJN / JNU - PAPG / PSG

Flight Track Log - Related Links

Times and Time Zones

All times are in EDT time to prevent confusion due to time zone crossing. See the N71AA flight status page for this flight to view local times or setup timezone preferences in your user account.

Time Position Orientation Groundspeed Altitude Reporting Facility
EDT Latitude Longitude Course Direction KTS MPH feet Rate Location/Type
12:48PM 58.3667 -134.6667 131° Southeast 160 184 2,900  Level Anchorage Center
12:49PM 58.3500 -134.7500 249° West 170 196 5,600 2,400 Climbing Anchorage Center
12:50PM 58.3500 -134.8333 270° West 180 207 7,800 2,100 Climbing Anchorage Center
12:51PM 58.3333 -134.9167 249° West 200 230 9,900 1,980 Climbing Anchorage Center
12:52PM 58.1861 -135.2279 227° Southwest  Level FlightAware Approximate
12:52PM 58.2833 -135.0000 221° Southwest 200 230 11,900  Level Anchorage Center
12:53PM 58.1367 -135.1848 131° Southeast  Level FlightAware Approximate
12:53PM 58.2667 -135.0667 245° Southwest 210 242 14,100  Level Anchorage Center
12:54PM 58.2167 -135.1500 221° Southwest 200 230 16,100 1,440 Climbing Anchorage Center
12:55PM 58.1667 -135.2167 215° Southwest 220 253 17,000 420 Climbing Anchorage Center
12:56PM 58.1000 -135.1333 147° Southeast 280 322 17,000  Level Anchorage Center
12:57PM 58.0500 -135.0000 125° Southeast 280 322 17,000  Level Anchorage Center
12:58PM 58.0000 -134.9000 133° Southeast 290 334 17,000  Level Anchorage Center
12:59PM 57.9500 -134.7833 129° Southeast 290 334 17,000  Level Anchorage Center
01:00PM 57.9000 -134.6667 129° Southeast 280 322 17,000  Level Anchorage Center
01:01PM 57.8333 -134.5500 137° Southeast 290 334 17,000  Level Anchorage Center
01:02PM 57.7833 -134.4500 133° Southeast 290 334 17,000  Level Anchorage Center
01:03PM 57.7333 -134.3333 129° Southeast 290 334 17,000  Level Anchorage Center
01:04PM 57.6833 -134.2167 129° Southeast 290 334 17,000  Level Anchorage Center
01:05PM 57.6167 -134.1167 141° Southeast 290 334 17,000  Level Anchorage Center
01:06PM 57.5667 -134.0000 129° Southeast 290 334 17,000  Level Anchorage Center
01:07PM 57.5167 -133.8833 129° Southeast 290 334 17,000 -600 Level Anchorage Center
01:08PM 57.4500 -133.7667 137° Southeast 290 334 15,900 -1,140 Descending Anchorage Center
01:11PM 57.3749 -133.6245 135° Southeast  Level FlightAware Approximate
01:18PM 57.0156 -133.0992 158° South  Level FlightAware Approximate
01:19PM 56.9523 -133.0517 158° South  Level FlightAware Approximate
01:20PM 56.8959 -133.0008 162° South  Level FlightAware Approximate
01:21PM 56.8318 -132.9571 158° South  Level FlightAware Approximate
01:22PM 56.8000 -132.9333 158° South  Level FlightAware Approximate
01:23PM 56.8015 -132.9462 158° South  Level Estimated
01:24PM 56.8000 -132.9333 158° South  Level FlightAware Approximate
01:25PM 56.8015 -132.9462 158° South  Level Estimated
01:26PM 56.8000 -132.9333 158° South  Level FlightAware Approximate
01:27PM 56.8015 -132.9462 158° South  Level Estimated
01:28PM 56.8000 -132.9333 158° South  Level FlightAware Approximate
01:29PM 56.8015 -132.9462 158° South  Level Estimated
01:30PM 56.8000 -132.9333 158° South  Level FlightAware Approximate
01:31PM 56.8015 -132.9462 158° South  Level Estimated
01:32PM 56.8000 -132.9333 158° South  Level FlightAware Approximate
01:33PM 56.8015 -132.9462 158° South  Level Estimated
01:34PM 56.8000 -132.9333 158° South  Level FlightAware Approximate